Kezdőlap
METAR-TAF:

METAR-TAF

Repülőterek :

Taylor County Airport

Medford, Wisconsin, Amerikai Egyesült Államok

földrajzi szélesség: 45-06-04N, földrajzi hosszúság: 090-18-12W, magasság: 448 m

Jelenlegi meteorológiai megfigyelések

A jelentés 40 perccel ezelõtt készült, 16:55 UTC
Észak-északkeleti szél 3 kt
Hőmérséklet 17°C
Páratartalom 82%
Légköri nyomás 1023 hPa
Látótávolság: 16.1 km
Szakadozott felhőzet 2200 lábon
Borult 2900 lábon

METAR: KMDZ 241655Z AUTO 02003KT 10SM BKN022 OVC029 17/14 A3022 RMK AO2 T01730140 PWINO

Idő: 12:35 (17:35 UTC)


TAF: hiányzik

Meteorológiai megfigyelések és előrejelzések több, mint 4000 repülőtéren (METAR és TAF jelentéseket).

A térképen piros és sárga pontok jelzik az elérhető meteorológiai állomásokat.

Mozgassa az egeret a pont fölött, hogy megjelenjen az állomás neve.

Azután kattintson az időjárási megfigyelések és előrejelzések megtekintéséhez.

A térkép megváltoztatása: kattintson a fekete keresztel jelölt zöld gombra ráközelítéshez, a vonallal jelölt zöld gombra távolításhoz, vagy a zöld nyilakra a szomszédos térképek eléréséhez.


METAR-TAF: